sensor_id;sensor_type;location;lat;lon;timestamp;pressure;altitude;pressure_sealevel;temperature;humidity
6449;BME280;3257;52.298;13.690;2022-12-08T00:00:03;78007.78;;;-144.77;91.47
6449;BME280;3257;52.298;13.690;2022-12-08T00:02:30;78013.75;;;-144.77;92.15
6449;BME280;3257;52.298;13.690;2022-12-08T00:04:57;78017.72;;;-144.77;91.66
6449;BME280;3257;52.298;13.690;2022-12-08T00:07:42;78035.63;;;-144.77;91.78
6449;BME280;3257;52.298;13.690;2022-12-08T00:10:44;78023.69;;;-144.77;91.75
6449;BME280;3257;52.298;13.690;2022-12-08T00:13:15;78005.81;;;-144.77;91.49
6449;BME280;3257;52.298;13.690;2022-12-08T00:15:41;78025.69;;;-144.77;91.97
6449;BME280;3257;52.298;13.690;2022-12-08T00:18:08;78039.59;;;-144.77;91.85
6449;BME280;3257;52.298;13.690;2022-12-08T00:20:34;78047.56;;;-144.77;91.80
6449;BME280;3257;52.298;13.690;2022-12-08T00:23:00;78049.53;;;-144.77;92.08
6449;BME280;3257;52.298;13.690;2022-12-08T00:25:30;78059.47;;;-144.77;91.71
6449;BME280;3257;52.298;13.690;2022-12-08T00:27:57;78043.56;;;-144.77;92.32
6449;BME280;3257;52.298;13.690;2022-12-08T00:30:23;78011.75;;;-144.77;91.84
6449;BME280;3257;52.298;13.690;2022-12-08T00:32:49;78021.69;;;-144.77;91.68
6449;BME280;3257;52.298;13.690;2022-12-08T00:35:16;78013.75;;;-144.77;92.15
6449;BME280;3257;52.298;13.690;2022-12-08T00:37:42;78033.63;;;-144.77;91.96
6449;BME280;3257;52.298;13.690;2022-12-08T00:40:09;78019.72;;;-144.77;91.59
6449;BME280;3257;52.298;13.690;2022-12-08T00:42:35;78005.81;;;-144.77;91.80
6449;BME280;3257;52.298;13.690;2022-12-08T00:45:02;77972.00;;;-144.77;91.24
6449;BME280;3257;52.298;13.690;2022-12-08T00:47:28;77995.84;;;-144.77;91.66
6449;BME280;3257;52.298;13.690;2022-12-08T00:49:55;77997.84;;;-144.77;91.37
6449;BME280;3257;52.298;13.690;2022-12-08T00:52:22;78001.81;;;-144.77;91.57
6449;BME280;3257;52.298;13.690;2022-12-08T00:54:48;77974.00;;;-144.77;91.82
6449;BME280;3257;52.298;13.690;2022-12-08T00:57:14;77977.97;;;-144.77;91.34
6449;BME280;3257;52.298;13.690;2022-12-08T00:59:41;77974.00;;;-144.77;91.07
6449;BME280;3257;52.298;13.690;2022-12-08T01:02:07;77970.00;;;-144.77;91.30
6449;BME280;3257;52.298;13.690;2022-12-08T01:04:34;77970.00;;;-144.77;91.02
6449;BME280;3257;52.298;13.690;2022-12-08T01:07:00;77985.91;;;-144.77;91.03
6449;BME280;3257;52.298;13.690;2022-12-08T01:09:26;77970.00;;;-144.77;91.27
6449;BME280;3257;52.298;13.690;2022-12-08T01:11:53;77964.06;;;-144.77;90.68
6449;BME280;3257;52.298;13.690;2022-12-08T01:14:19;77962.06;;;-144.77;90.78
6449;BME280;3257;52.298;13.690;2022-12-08T01:16:46;77948.16;;;-144.77;91.37
6449;BME280;3257;52.298;13.690;2022-12-08T01:19:14;77950.13;;;-144.77;90.39
6449;BME280;3257;52.298;13.690;2022-12-08T01:21:41;77928.28;;;-144.77;90.86
6449;BME280;3257;52.298;13.690;2022-12-08T01:24:12;77940.19;;;-144.77;90.37
6449;BME280;3257;52.298;13.690;2022-12-08T01:26:39;77932.25;;;-144.77;90.98
6449;BME280;3257;52.298;13.690;2022-12-08T01:29:06;77930.25;;;-144.77;90.59
6449;BME280;3257;52.298;13.690;2022-12-08T01:31:33;77936.22;;;-144.77;90.50
6449;BME280;3257;52.298;13.690;2022-12-08T01:34:00;77928.28;;;-144.77;90.73
6449;BME280;3257;52.298;13.690;2022-12-08T01:36:29;77930.25;;;-144.77;91.05
6449;BME280;3257;52.298;13.690;2022-12-08T01:38:58;77914.34;;;-144.77;90.71
6449;BME280;3257;52.298;13.690;2022-12-08T01:41:28;77894.47;;;-144.77;90.54
6449;BME280;3257;52.298;13.690;2022-12-08T01:46:36;77892.47;;;-144.77;90.59
6449;BME280;3257;52.298;13.690;2022-12-08T01:49:14;77900.44;;;-144.77;90.56
6449;BME280;3257;52.298;13.690;2022-12-08T01:51:48;77890.50;;;-144.77;90.95
6449;BME280;3257;52.298;13.690;2022-12-08T01:54:17;77882.53;;;-144.77;90.89
6449;BME280;3257;52.298;13.690;2022-12-08T01:56:57;77868.63;;;-144.77;90.84
6449;BME280;3257;52.298;13.690;2022-12-08T01:59:27;77866.63;;;-144.77;90.52
6449;BME280;3257;52.298;13.690;2022-12-08T02:01:56;77880.56;;;-144.77;90.47
6449;BME280;3257;52.298;13.690;2022-12-08T02:04:23;77864.66;;;-144.77;90.84
6449;BME280;3257;52.298;13.690;2022-12-08T02:06:50;77862.66;;;-144.77;90.82
6449;BME280;3257;52.298;13.690;2022-12-08T02:09:18;77858.69;;;-144.77;90.50
6449;BME280;3257;52.298;13.690;2022-12-08T02:11:44;77844.78;;;-144.77;90.45
6449;BME280;3257;52.298;13.690;2022-12-08T02:14:12;77858.69;;;-144.77;90.52
6449;BME280;3257;52.298;13.690;2022-12-08T02:16:53;77836.81;;;-144.77;90.52
6449;BME280;3257;52.298;13.690;2022-12-08T02:19:43;77836.81;;;-144.77;90.74
6449;BME280;3257;52.298;13.690;2022-12-08T02:22:41;77842.78;;;-144.77;90.79
6449;BME280;3257;52.298;13.690;2022-12-08T02:25:19;77832.84;;;-144.77;90.57
6449;BME280;3257;52.298;13.690;2022-12-08T02:27:58;77840.78;;;-144.77;90.74
6449;BME280;3257;52.298;13.690;2022-12-08T02:30:52;77830.84;;;-144.77;90.89
6449;BME280;3257;52.298;13.690;2022-12-08T02:36:24;77822.91;;;-144.77;90.94
6449;BME280;3257;52.298;13.690;2022-12-08T02:39:02;77826.88;;;-144.77;90.76
6449;BME280;3257;52.298;13.690;2022-12-08T02:41:40;77826.88;;;-144.77;89.74
6449;BME280;3257;52.298;13.690;2022-12-08T02:44:23;77828.88;;;-144.77;90.20
6449;BME280;3257;52.298;13.690;2022-12-08T16:27:43;77479.03;;;-144.77;91.37
6449;BME280;3257;52.298;13.690;2022-12-08T16:30:30;77449.19;;;-144.77;91.16
6449;BME280;3257;52.298;13.690;2022-12-08T16:32:57;77433.31;;;-144.77;91.27
6449;BME280;3257;52.298;13.690;2022-12-08T16:35:23;77445.22;;;-144.77;90.53
6449;BME280;3257;52.298;13.690;2022-12-08T16:37:50;77451.19;;;-144.77;91.14
6449;BME280;3257;52.298;13.690;2022-12-08T16:40:17;77449.19;;;-144.77;91.07
6449;BME280;3257;52.298;13.690;2022-12-08T16:42:43;77463.13;;;-144.77;90.88
6449;BME280;3257;52.298;13.690;2022-12-08T16:45:21;77483.00;;;-144.77;91.23
6449;BME280;3257;52.298;13.690;2022-12-08T16:47:53;77465.09;;;-144.77;91.05
6449;BME280;3257;52.298;13.690;2022-12-08T16:50:29;77441.25;;;-144.77;90.54
6449;BME280;3257;52.298;13.690;2022-12-08T16:52:57;77455.16;;;-144.77;90.26
6449;BME280;3257;52.298;13.690;2022-12-08T16:55:25;77477.03;;;-144.77;90.57
6449;BME280;3257;52.298;13.690;2022-12-08T16:57:51;77449.19;;;-144.77;91.10
6449;BME280;3257;52.298;13.690;2022-12-08T17:00:26;77467.09;;;-144.77;90.39
6449;BME280;3257;52.298;13.690;2022-12-08T17:02:53;77471.06;;;-144.77;90.89
6449;BME280;3257;52.298;13.690;2022-12-08T17:05:22;77473.06;;;-144.77;91.23
6449;BME280;3257;52.298;13.690;2022-12-08T17:07:50;77488.97;;;-144.77;90.95
6449;BME280;3257;52.298;13.690;2022-12-08T17:10:20;77459.13;;;-144.77;90.75
6449;BME280;3257;52.298;13.690;2022-12-08T17:12:48;77488.97;;;-144.77;90.89
6449;BME280;3257;52.298;13.690;2022-12-08T17:15:18;77486.97;;;-144.77;91.37
6449;BME280;3257;52.298;13.690;2022-12-08T17:17:44;77500.88;;;-144.77;91.09
6449;BME280;3257;52.298;13.690;2022-12-08T17:20:20;77510.81;;;-144.77;90.94
6449;BME280;3257;52.298;13.690;2022-12-08T17:22:47;77514.78;;;-144.77;91.17
6449;BME280;3257;52.298;13.690;2022-12-08T17:25:14;77516.78;;;-144.77;91.68
6449;BME280;3257;52.298;13.690;2022-12-08T17:27:41;77520.75;;;-144.77;91.28
6449;BME280;3257;52.298;13.690;2022-12-08T17:30:09;77524.72;;;-144.77;91.54
6449;BME280;3257;52.298;13.690;2022-12-08T17:32:37;77524.72;;;-144.77;91.48
6449;BME280;3257;52.298;13.690;2022-12-08T17:35:04;77534.69;;;-144.77;91.01
6449;BME280;3257;52.298;13.690;2022-12-08T17:37:31;77532.69;;;-144.77;90.90
6449;BME280;3257;52.298;13.690;2022-12-08T17:39:57;77552.56;;;-144.77;91.42
6449;BME280;3257;52.298;13.690;2022-12-08T17:42:24;77558.53;;;-144.77;91.37
6449;BME280;3257;52.298;13.690;2022-12-08T17:44:53;77576.41;;;-144.77;91.49
6449;BME280;3257;52.298;13.690;2022-12-08T17:47:19;77578.41;;;-144.77;91.10
6449;BME280;3257;52.298;13.690;2022-12-08T17:49:46;77576.41;;;-144.77;91.04
6449;BME280;3257;52.298;13.690;2022-12-08T17:52:12;77594.31;;;-144.77;91.16
6449;BME280;3257;52.298;13.690;2022-12-08T17:54:39;77598.28;;;-144.77;91.46
6449;BME280;3257;52.298;13.690;2022-12-08T17:57:05;77616.16;;;-144.77;91.29
6449;BME280;3257;52.298;13.690;2022-12-08T17:59:32;77606.22;;;-144.77;91.59
6449;BME280;3257;52.298;13.690;2022-12-08T18:01:58;77594.31;;;-144.77;91.54
6449;BME280;3257;52.298;13.690;2022-12-08T18:04:26;77622.13;;;-144.77;91.37
6449;BME280;3257;52.298;13.690;2022-12-08T18:06:53;77610.22;;;-144.77;91.18
6449;BME280;3257;52.298;13.690;2022-12-08T18:09:20;77610.22;;;-144.77;91.22
6449;BME280;3257;52.298;13.690;2022-12-08T18:11:46;77634.06;;;-144.77;91.49
6449;BME280;3257;52.298;13.690;2022-12-08T18:14:13;77622.13;;;-144.77;91.59
6449;BME280;3257;52.298;13.690;2022-12-08T18:16:42;77638.03;;;-144.77;91.75
6449;BME280;3257;52.298;13.690;2022-12-08T18:19:10;77646.00;;;-144.77;91.80
6449;BME280;3257;52.298;13.690;2022-12-08T18:21:38;77653.94;;;-144.77;91.74
6449;BME280;3257;52.298;13.690;2022-12-08T18:24:05;77628.09;;;-144.77;91.73
6449;BME280;3257;52.298;13.690;2022-12-08T18:26:32;77651.94;;;-144.77;90.95
6449;BME280;3257;52.298;13.690;2022-12-08T18:28:59;77655.94;;;-144.77;91.09
6449;BME280;3257;52.298;13.690;2022-12-08T18:31:26;77653.94;;;-144.77;91.27
6449;BME280;3257;52.298;13.690;2022-12-08T18:33:52;77651.94;;;-144.77;90.77
6449;BME280;3257;52.298;13.690;2022-12-08T18:36:22;77663.88;;;-144.77;91.27
6449;BME280;3257;52.298;13.690;2022-12-08T18:38:49;77677.78;;;-144.77;91.50
6449;BME280;3257;52.298;13.690;2022-12-08T18:41:19;77679.78;;;-144.77;91.24
6449;BME280;3257;52.298;13.690;2022-12-08T18:43:46;77687.72;;;-144.77;91.57
6449;BME280;3257;52.298;13.690;2022-12-08T18:46:13;77695.69;;;-144.77;91.33
6449;BME280;3257;52.298;13.690;2022-12-08T18:48:45;77705.63;;;-144.77;91.37
6449;BME280;3257;52.298;13.690;2022-12-08T18:51:14;77715.56;;;-144.77;91.94
6449;BME280;3257;52.298;13.690;2022-12-08T18:53:42;77725.50;;;-144.77;91.57
6449;BME280;3257;52.298;13.690;2022-12-08T18:56:25;77733.47;;;-144.77;92.13
6449;BME280;3257;52.298;13.690;2022-12-08T18:58:53;77737.44;;;-144.77;92.38
6449;BME280;3257;52.298;13.690;2022-12-08T19:01:26;77735.44;;;-144.77;92.19
6449;BME280;3257;52.298;13.690;2022-12-08T19:03:53;77737.44;;;-144.77;92.15
6449;BME280;3257;52.298;13.690;2022-12-08T19:06:39;77737.44;;;-144.77;92.48
6449;BME280;3257;52.298;13.690;2022-12-08T19:09:07;77737.44;;;-144.77;92.17
6449;BME280;3257;52.298;13.690;2022-12-08T19:11:35;77717.56;;;-144.77;92.30
6449;BME280;3257;52.298;13.690;2022-12-08T19:14:02;77729.47;;;-144.77;92.74
6449;BME280;3257;52.298;13.690;2022-12-08T19:16:28;77727.50;;;-144.77;92.71
6449;BME280;3257;52.298;13.690;2022-12-08T19:18:55;77747.38;;;-144.77;92.29
6449;BME280;3257;52.298;13.690;2022-12-08T19:21:22;77749.34;;;-144.77;92.28
6449;BME280;3257;52.298;13.690;2022-12-08T19:23:50;77751.34;;;-144.77;92.04
6449;BME280;3257;52.298;13.690;2022-12-08T19:26:18;77751.34;;;-144.77;92.09
6449;BME280;3257;52.298;13.690;2022-12-08T19:28:44;77765.25;;;-144.77;92.61
6449;BME280;3257;52.298;13.690;2022-12-08T19:31:11;77771.22;;;-144.77;92.19
6449;BME280;3257;52.298;13.690;2022-12-08T19:33:38;77757.31;;;-144.77;92.47
6449;BME280;3257;52.298;13.690;2022-12-08T19:36:06;77765.25;;;-144.77;92.64
6449;BME280;3257;52.298;13.690;2022-12-08T19:38:35;77759.28;;;-144.77;92.72
6449;BME280;3257;52.298;13.690;2022-12-08T19:41:22;77783.16;;;-144.77;92.79
6449;BME280;3257;52.298;13.690;2022-12-08T19:44:33;77773.22;;;-144.77;92.69
6449;BME280;3257;52.298;13.690;2022-12-08T19:47:23;77761.28;;;-144.77;92.73
6449;BME280;3257;52.298;13.690;2022-12-08T19:49:52;77771.22;;;-144.77;92.61
6449;BME280;3257;52.298;13.690;2022-12-08T19:52:20;77775.19;;;-144.77;92.42
6449;BME280;3257;52.298;13.690;2022-12-08T19:54:46;77781.16;;;-144.77;92.24
6449;BME280;3257;52.298;13.690;2022-12-08T19:57:13;77771.22;;;-144.77;92.24
6449;BME280;3257;52.298;13.690;2022-12-08T19:59:39;77769.22;;;-144.77;92.10
6449;BME280;3257;52.298;13.690;2022-12-08T20:02:06;77785.13;;;-144.77;92.41
6449;BME280;3257;52.298;13.690;2022-12-08T20:04:32;77797.06;;;-144.77;92.69
6449;BME280;3257;52.298;13.690;2022-12-08T20:06:59;77785.13;;;-144.77;92.67
6449;BME280;3257;52.298;13.690;2022-12-08T20:09:26;77803.03;;;-144.77;92.57
6449;BME280;3257;52.298;13.690;2022-12-08T20:11:52;77793.09;;;-144.77;92.27
6449;BME280;3257;52.298;13.690;2022-12-08T20:14:21;77809.00;;;-144.77;92.23
6449;BME280;3257;52.298;13.690;2022-12-08T20:16:48;77810.97;;;-144.77;92.16
6449;BME280;3257;52.298;13.690;2022-12-08T20:19:15;77818.94;;;-144.77;92.69
6449;BME280;3257;52.298;13.690;2022-12-08T20:21:41;77816.94;;;-144.77;93.09
6449;BME280;3257;52.298;13.690;2022-12-08T20:24:08;77789.13;;;-144.77;93.00
6449;BME280;3257;52.298;13.690;2022-12-08T20:26:34;77779.16;;;-144.77;93.34
6449;BME280;3257;52.298;13.690;2022-12-08T20:29:01;77777.19;;;-144.77;93.47
6449;BME280;3257;52.298;13.690;2022-12-08T20:31:29;77763.28;;;-144.77;93.37
6449;BME280;3257;52.298;13.690;2022-12-08T20:33:56;77771.22;;;-144.77;93.30
6449;BME280;3257;52.298;13.690;2022-12-08T20:36:22;77785.13;;;-144.77;92.70
6449;BME280;3257;52.298;13.690;2022-12-08T20:38:50;77781.16;;;-144.77;93.15
6449;BME280;3257;52.298;13.690;2022-12-08T20:41:18;77761.28;;;-144.77;93.04
6449;BME280;3257;52.298;13.690;2022-12-08T20:43:46;77735.44;;;-144.77;92.87
6449;BME280;3257;52.298;13.690;2022-12-08T20:46:14;77741.41;;;-144.77;92.38
6449;BME280;3257;52.298;13.690;2022-12-08T20:48:42;77751.34;;;-144.77;92.29
6449;BME280;3257;52.298;13.690;2022-12-08T20:51:14;77745.38;;;-144.77;92.27
6449;BME280;3257;52.298;13.690;2022-12-08T20:53:41;77743.41;;;-144.77;92.09
6449;BME280;3257;52.298;13.690;2022-12-08T20:56:12;77755.31;;;-144.77;92.03
6449;BME280;3257;52.298;13.690;2022-12-08T20:58:39;77761.28;;;-144.77;91.85
6449;BME280;3257;52.298;13.690;2022-12-08T21:01:15;77769.22;;;-144.77;92.15
6449;BME280;3257;52.298;13.690;2022-12-08T21:03:43;77771.22;;;-144.77;92.45
6449;BME280;3257;52.298;13.690;2022-12-08T21:06:11;77759.28;;;-144.77;91.68
6449;BME280;3257;52.298;13.690;2022-12-08T21:08:38;77755.31;;;-144.77;90.85
6449;BME280;3257;52.298;13.690;2022-12-08T21:11:06;77775.19;;;-144.77;91.15
6449;BME280;3257;52.298;13.690;2022-12-08T21:13:33;77783.16;;;-144.77;91.59
6449;BME280;3257;52.298;13.690;2022-12-08T21:16:01;77783.16;;;-144.77;92.00
6449;BME280;3257;52.298;13.690;2022-12-08T21:18:29;77787.13;;;-144.77;91.51
6449;BME280;3257;52.298;13.690;2022-12-08T21:21:10;77797.06;;;-144.77;91.59
6449;BME280;3257;52.298;13.690;2022-12-08T21:23:39;77809.00;;;-144.77;91.71
6449;BME280;3257;52.298;13.690;2022-12-08T21:26:12;77818.94;;;-144.77;91.91
6449;BME280;3257;52.298;13.690;2022-12-08T21:28:39;77812.97;;;-144.77;92.23
6449;BME280;3257;52.298;13.690;2022-12-08T21:31:10;77816.94;;;-144.77;92.07
6449;BME280;3257;52.298;13.690;2022-12-08T21:33:37;77832.84;;;-144.77;91.82
6449;BME280;3257;52.298;13.690;2022-12-08T21:36:07;77832.84;;;-144.77;92.17
6449;BME280;3257;52.298;13.690;2022-12-08T21:38:36;77838.81;;;-144.77;91.82
6449;BME280;3257;52.298;13.690;2022-12-08T21:41:06;77834.84;;;-144.77;92.12
6449;BME280;3257;52.298;13.690;2022-12-08T21:43:33;77787.13;;;-144.77;91.64
6449;BME280;3257;52.298;13.690;2022-12-08T21:46:01;77820.91;;;-144.77;91.30
6449;BME280;3257;52.298;13.690;2022-12-08T21:48:28;77850.75;;;-144.77;91.65
6449;BME280;3257;52.298;13.690;2022-12-08T21:50:55;77852.72;;;-144.77;91.67
6449;BME280;3257;52.298;13.690;2022-12-08T21:53:22;77852.72;;;-144.77;91.86
6449;BME280;3257;52.298;13.690;2022-12-08T21:55:51;77820.91;;;-144.77;91.71
6449;BME280;3257;52.298;13.690;2022-12-08T21:58:18;77818.94;;;-144.77;91.34
6449;BME280;3257;52.298;13.690;2022-12-08T22:00:45;77822.91;;;-144.77;90.93
6449;BME280;3257;52.298;13.690;2022-12-08T22:03:12;77828.88;;;-144.77;91.34
6449;BME280;3257;52.298;13.690;2022-12-08T22:05:40;77812.97;;;-144.77;90.92
6449;BME280;3257;52.298;13.690;2022-12-08T22:08:07;77803.03;;;-144.77;91.00
6449;BME280;3257;52.298;13.690;2022-12-08T22:10:34;77785.13;;;-144.77;89.73
6449;BME280;3257;52.298;13.690;2022-12-08T22:13:01;77812.97;;;-144.77;89.78
6449;BME280;3257;52.298;13.690;2022-12-08T22:15:27;77803.03;;;-144.77;90.46
6449;BME280;3257;52.298;13.690;2022-12-08T22:17:55;77812.97;;;-144.77;90.58
6449;BME280;3257;52.298;13.690;2022-12-08T22:20:22;77810.97;;;-144.77;89.87
6449;BME280;3257;52.298;13.690;2022-12-08T22:22:48;77795.06;;;-144.77;90.39
6449;BME280;3257;52.298;13.690;2022-12-08T22:25:15;77830.84;;;-144.77;89.95
6449;BME280;3257;52.298;13.690;2022-12-08T22:27:42;77836.81;;;-144.77;90.27
6449;BME280;3257;52.298;13.690;2022-12-08T22:30:09;77852.72;;;-144.77;90.52
6449;BME280;3257;52.298;13.690;2022-12-08T22:32:37;77864.66;;;-144.77;91.09
6449;BME280;3257;52.298;13.690;2022-12-08T22:35:04;77872.59;;;-144.77;90.90
6449;BME280;3257;52.298;13.690;2022-12-08T22:37:30;77884.53;;;-144.77;91.16
6449;BME280;3257;52.298;13.690;2022-12-08T22:39:57;77890.50;;;-144.77;91.12
6449;BME280;3257;52.298;13.690;2022-12-08T22:42:23;77890.50;;;-144.77;91.58
6449;BME280;3257;52.298;13.690;2022-12-08T22:44:50;77872.59;;;-144.77;91.80
6449;BME280;3257;52.298;13.690;2022-12-08T22:47:17;77866.63;;;-144.77;91.30
6449;BME280;3257;52.298;13.690;2022-12-08T22:49:43;77832.84;;;-144.77;90.36
6449;BME280;3257;52.298;13.690;2022-12-08T22:52:09;77866.63;;;-144.77;90.10
6449;BME280;3257;52.298;13.690;2022-12-08T22:54:36;77868.63;;;-144.77;90.39
6449;BME280;3257;52.298;13.690;2022-12-08T22:57:03;77872.59;;;-144.77;90.02
6449;BME280;3257;52.298;13.690;2022-12-08T22:59:29;77878.56;;;-144.77;89.96
6449;BME280;3257;52.298;13.690;2022-12-08T23:01:58;77880.56;;;-144.77;90.12
6449;BME280;3257;52.298;13.690;2022-12-08T23:04:25;77874.59;;;-144.77;90.47
6449;BME280;3257;52.298;13.690;2022-12-08T23:06:51;77882.53;;;-144.77;90.37
6449;BME280;3257;52.298;13.690;2022-12-08T23:09:18;77878.56;;;-144.77;89.91
6449;BME280;3257;52.298;13.690;2022-12-08T23:11:44;77886.53;;;-144.77;89.67
6449;BME280;3257;52.298;13.690;2022-12-08T23:14:11;77888.50;;;-144.77;90.02
6449;BME280;3257;52.298;13.690;2022-12-08T23:16:38;77874.59;;;-144.77;89.69
6449;BME280;3257;52.298;13.690;2022-12-08T23:19:05;77902.44;;;-144.77;89.47
6449;BME280;3257;52.298;13.690;2022-12-08T23:21:31;77914.34;;;-144.77;89.65
6449;BME280;3257;52.298;13.690;2022-12-08T23:24:01;77914.34;;;-144.77;89.84
6449;BME280;3257;52.298;13.690;2022-12-08T23:26:29;77892.47;;;-144.77;90.02
6449;BME280;3257;52.298;13.690;2022-12-08T23:28:57;77906.41;;;-144.77;89.29
6449;BME280;3257;52.298;13.690;2022-12-08T23:31:24;77908.38;;;-144.77;90.00
6449;BME280;3257;52.298;13.690;2022-12-08T23:33:51;77932.25;;;-144.77;90.04
6449;BME280;3257;52.298;13.690;2022-12-08T23:36:20;77936.22;;;-144.77;90.37
6449;BME280;3257;52.298;13.690;2022-12-08T23:38:47;77934.22;;;-144.77;90.60
6449;BME280;3257;52.298;13.690;2022-12-08T23:41:15;77934.22;;;-144.77;90.46
6449;BME280;3257;52.298;13.690;2022-12-08T23:43:47;77944.16;;;-144.77;90.37
6449;BME280;3257;52.298;13.690;2022-12-08T23:46:15;77942.19;;;-144.77;90.96
6449;BME280;3257;52.298;13.690;2022-12-08T23:48:42;77924.28;;;-144.77;90.14
6449;BME280;3257;52.298;13.690;2022-12-08T23:51:09;77962.06;;;-144.77;90.24
6449;BME280;3257;52.298;13.690;2022-12-08T23:53:35;77966.03;;;-144.77;90.59
6449;BME280;3257;52.298;13.690;2022-12-08T23:56:05;77966.03;;;-144.77;90.42
6449;BME280;3257;52.298;13.690;2022-12-08T23:58:33;77946.16;;;-144.77;90.43
